Orfeas — V7FK4 — position and weather

sailwx.info

Track history (hours):
 
Tides and Currents Weather Stations Pressure Air Temp Water Temp Dewpoint Dewpoint Depression Visibility Wind Speed Wind Dir Waves Ship Positions

Orfeas

Last reported at 2017-Aug-31 16:39 UTC. Time now 2017-Sep-21 16:21 UTC.
Position N 09°11' W 079°52'.
Warning: this ship's position is 20 days out of date.

Length 192 m; draft 12.2 m.

Type: Cargo ship. MMSI: 538001960.

Date/timePositionNaut miles runAvg speedWind from/ knotsBaromVisibWave heightAir tempDewpointWater temp
2017-Aug-31 16:39N 09°11' W 079°52'1 6.1
2017-Aug-31 16:30N 09°11' W 079°52'4 7.8
2017-Aug-31 16:01N 09°13' W 079°55'2 5.0
2017-Aug-31 15:31N 09°16' W 079°55'0 0.9
2017-Aug-31 15:01N 09°16' W 079°55'0 0.6
2017-Aug-31 14:31N 09°17' W 079°55'0 0.4
2017-Aug-31 14:00N 09°17' W 079°55'0 0.1
2017-Aug-31 13:31N 09°17' W 079°55'1 1.3
2017-Aug-31 13:00N 09°18' W 079°55'1 1.5
2017-Aug-31 12:31N 09°18' W 079°55'1 2.3
2017-Aug-31 12:01N 09°19' W 079°55'3 5.5
2017-Aug-31 11:31N 09°22' W 079°55'3 5.0
2017-Aug-31 11:01N 09°25' W 079°55'3 5.1
2017-Aug-31 10:30N 09°25' W 079°58'1 1.8
2017-Aug-31 09:58N 09°25' W 079°59'0 0.1
2017-Aug-31 09:28N 09°25' W 079°59'0 0.0
2017-Aug-31 08:58N 09°25' W 079°59'0 0.0
2017-Aug-31 08:28N 09°25' W 079°59'0 0.0
2017-Aug-31 07:58N 09°25' W 079°59'0 0.0
2017-Aug-31 07:28N 09°25' W 079°59'0 0.0
2017-Aug-31 07:01N 09°25' W 079°59'0 0.0
2017-Aug-31 06:28N 09°25' W 079°59'0 0.0
2017-Aug-31 05:58N 09°25' W 079°59'0 0.0
2017-Aug-31 05:30N 09°25' W 079°59'0 0.0
2017-Aug-31 04:58N 09°25' W 079°59'0 0.0
2017-Aug-31 04:27N 09°25' W 079°59'0 0.0
2017-Aug-31 03:58N 09°25' W 079°59'0 0.0
2017-Aug-31 03:28N 09°25' W 079°59'0 0.0
2017-Aug-31 02:58N 09°25' W 079°59'0 0.0
2017-Aug-31 02:28N 09°25' W 079°59'0 0.0
2017-Aug-31 01:58N 09°25' W 079°59'0 0.0
2017-Aug-31 01:28N 09°25' W 079°59'0 0.0
2017-Aug-31 00:58N 09°25' W 079°59'0 0.0
2017-Aug-31 00:31N 09°25' W 079°59'0 0.0
2017-Aug-31 00:00N 09°25' W 079°59'0 0.0
2017-Aug-30 23:31N 09°25' W 079°59'0 0.0
2017-Aug-30 23:01N 09°25' W 079°59'0 0.1
2017-Aug-30 22:28N 09°25' W 079°59'1 1.5
2017-Aug-30 22:00N 09°25' W 079°58'2 4.5
2017-Aug-30 21:31N 09°26' W 079°56'3 5.1
2017-Aug-30 21:00N 09°28' W 079°55'4 7.3
2017-Aug-30 20:30N 09°32' W 079°54'4 8.4
2017-Aug-30 20:00N 09°36' W 079°53'  
2017-Aug-25 05:40N 29°31' W 094°53'211.5
2017-Aug-25 05:31N 29°33' W 094°54'611.0
2017-Aug-25 05:00N 29°37' W 094°58'5 9.9
2017-Aug-25 04:30N 29°42' W 094°60'3 6.8
2017-Aug-25 04:00N 29°44' W 095°03'3 5.2
2017-Aug-25 03:29N 29°45' W 095°06'3 6.1
2017-Aug-25 02:59N 29°44' W 095°09'3 5.2
2017-Aug-25 02:27N 29°44' W 095°12'  
Track history (hours):
 
Tides and Currents Weather Stations Pressure Air Temp Water Temp Dewpoint Dewpoint Depression Visibility Wind Speed Wind Dir Waves Ship Positions

Orfeas

Last reported at 2017-Aug-31 16:39 UTC. Time now 2017-Sep-21 16:21 UTC.
Position N 09°11' W 079°52'.
Warning: this ship's position is 20 days out of date.

Length 192 m; draft 12.2 m.

Type: Cargo ship. MMSI: 538001960.

Date/timePositionNaut miles runAvg speedWind from/ knotsBaromVisibWave heightAir tempDewpointWater temp
2017-Aug-31 16:39N 09°11' W 079°52'1 6.1
2017-Aug-31 16:30N 09°11' W 079°52'4 7.8
2017-Aug-31 16:01N 09°13' W 079°55'2 5.0
2017-Aug-31 15:31N 09°16' W 079°55'0 0.9
2017-Aug-31 15:01N 09°16' W 079°55'0 0.6
2017-Aug-31 14:31N 09°17' W 079°55'0 0.4
2017-Aug-31 14:00N 09°17' W 079°55'0 0.1
2017-Aug-31 13:31N 09°17' W 079°55'1 1.3
2017-Aug-31 13:00N 09°18' W 079°55'1 1.5
2017-Aug-31 12:31N 09°18' W 079°55'1 2.3
2017-Aug-31 12:01N 09°19' W 079°55'3 5.5
2017-Aug-31 11:31N 09°22' W 079°55'3 5.0
2017-Aug-31 11:01N 09°25' W 079°55'3 5.1
2017-Aug-31 10:30N 09°25' W 079°58'1 1.8
2017-Aug-31 09:58N 09°25' W 079°59'0 0.1
2017-Aug-31 09:28N 09°25' W 079°59'0 0.0
2017-Aug-31 08:58N 09°25' W 079°59'0 0.0
2017-Aug-31 08:28N 09°25' W 079°59'0 0.0
2017-Aug-31 07:58N 09°25' W 079°59'0 0.0
2017-Aug-31 07:28N 09°25' W 079°59'0 0.0
2017-Aug-31 07:01N 09°25' W 079°59'0 0.0
2017-Aug-31 06:28N 09°25' W 079°59'0 0.0
2017-Aug-31 05:58N 09°25' W 079°59'0 0.0
2017-Aug-31 05:30N 09°25' W 079°59'0 0.0
2017-Aug-31 04:58N 09°25' W 079°59'0 0.0
2017-Aug-31 04:27N 09°25' W 079°59'0 0.0
2017-Aug-31 03:58N 09°25' W 079°59'0 0.0
2017-Aug-31 03:28N 09°25' W 079°59'0 0.0
2017-Aug-31 02:58N 09°25' W 079°59'0 0.0
2017-Aug-31 02:28N 09°25' W 079°59'0 0.0
2017-Aug-31 01:58N 09°25' W 079°59'0 0.0
2017-Aug-31 01:28N 09°25' W 079°59'0 0.0
2017-Aug-31 00:58N 09°25' W 079°59'0 0.0
2017-Aug-31 00:31N 09°25' W 079°59'0 0.0
2017-Aug-31 00:00N 09°25' W 079°59'0 0.0
2017-Aug-30 23:31N 09°25' W 079°59'0 0.0
2017-Aug-30 23:01N 09°25' W 079°59'0 0.1
2017-Aug-30 22:28N 09°25' W 079°59'1 1.5
2017-Aug-30 22:00N 09°25' W 079°58'2 4.5
2017-Aug-30 21:31N 09°26' W 079°56'3 5.1
2017-Aug-30 21:00N 09°28' W 079°55'4 7.3
2017-Aug-30 20:30N 09°32' W 079°54'4 8.4
2017-Aug-30 20:00N 09°36' W 079°53'  
2017-Aug-25 05:40N 29°31' W 094°53'211.5
2017-Aug-25 05:31N 29°33' W 094°54'611.0
2017-Aug-25 05:00N 29°37' W 094°58'5 9.9
2017-Aug-25 04:30N 29°42' W 094°60'3 6.8
2017-Aug-25 04:00N 29°44' W 095°03'3 5.2
2017-Aug-25 03:29N 29°45' W 095°06'3 6.1
2017-Aug-25 02:59N 29°44' W 095°09'3 5.2
2017-Aug-25 02:27N 29°44' W 095°12'  

Dump ship's entire track history